sensor_id;sensor_type;location;lat;lon;timestamp;P1;durP1;ratioP1;P2;durP2;ratioP2
64678;SDS011;51094;53.864;27.676;2023-08-06T00:02:05;3.30;;;3.30;;
64678;SDS011;51094;53.864;27.676;2023-08-06T00:04:32;2.92;;;2.92;;
64678;SDS011;51094;53.864;27.676;2023-08-06T00:06:59;3.13;;;3.13;;
64678;SDS011;51094;53.864;27.676;2023-08-06T00:09:26;2.85;;;2.85;;
64678;SDS011;51094;53.864;27.676;2023-08-06T00:11:52;3.05;;;3.05;;
64678;SDS011;51094;53.864;27.676;2023-08-06T00:14:20;3.25;;;3.25;;
64678;SDS011;51094;53.864;27.676;2023-08-06T00:16:47;3.42;;;3.42;;
64678;SDS011;51094;53.864;27.676;2023-08-06T00:19:14;3.17;;;3.17;;
64678;SDS011;51094;53.864;27.676;2023-08-06T00:21:41;3.15;;;3.15;;
64678;SDS011;51094;53.864;27.676;2023-08-06T00:24:08;3.10;;;3.00;;
64678;SDS011;51094;53.864;27.676;2023-08-06T00:26:35;3.30;;;3.30;;
64678;SDS011;51094;53.864;27.676;2023-08-06T00:29:01;3.00;;;3.00;;
64678;SDS011;51094;53.864;27.676;2023-08-06T00:31:28;3.30;;;3.30;;
64678;SDS011;51094;53.864;27.676;2023-08-06T00:33:55;3.03;;;3.03;;
64678;SDS011;51094;53.864;27.676;2023-08-06T00:36:22;3.20;;;3.20;;
64678;SDS011;51094;53.864;27.676;2023-08-06T00:38:49;3.30;;;3.30;;
64678;SDS011;51094;53.864;27.676;2023-08-06T00:41:16;3.42;;;3.42;;
64678;SDS011;51094;53.864;27.676;2023-08-06T00:43:43;5.38;;;5.28;;
64678;SDS011;51094;53.864;27.676;2023-08-06T00:46:11;4.38;;;4.28;;
64678;SDS011;51094;53.864;27.676;2023-08-06T00:48:38;3.47;;;3.47;;
64678;SDS011;51094;53.864;27.676;2023-08-06T00:51:06;3.58;;;3.58;;
64678;SDS011;51094;53.864;27.676;2023-08-06T00:53:33;3.53;;;3.53;;
64678;SDS011;51094;53.864;27.676;2023-08-06T00:56:00;3.50;;;3.50;;
64678;SDS011;51094;53.864;27.676;2023-08-06T00:58:27;3.50;;;3.50;;
64678;SDS011;51094;53.864;27.676;2023-08-06T01:00:54;3.60;;;3.60;;
64678;SDS011;51094;53.864;27.676;2023-08-06T01:03:21;3.45;;;3.45;;
64678;SDS011;51094;53.864;27.676;2023-08-06T01:05:47;3.10;;;3.10;;
64678;SDS011;51094;53.864;27.676;2023-08-06T01:13:33;3.30;;;3.30;;
64678;SDS011;51094;53.864;27.676;2023-08-06T01:16:16;3.55;;;3.55;;
64678;SDS011;51094;53.864;27.676;2023-08-06T01:18:44;3.40;;;3.40;;
64678;SDS011;51094;53.864;27.676;2023-08-06T01:21:16;4.00;;;4.00;;
64678;SDS011;51094;53.864;27.676;2023-08-06T01:23:44;3.70;;;3.70;;
64678;SDS011;51094;53.864;27.676;2023-08-06T01:26:24;3.42;;;3.42;;
64678;SDS011;51094;53.864;27.676;2023-08-06T01:33:58;3.42;;;3.42;;
64678;SDS011;51094;53.864;27.676;2023-08-06T01:36:27;3.70;;;3.70;;
64678;SDS011;51094;53.864;27.676;2023-08-06T01:38:54;3.38;;;3.38;;
64678;SDS011;51094;53.864;27.676;2023-08-06T01:41:21;3.45;;;3.45;;
64678;SDS011;51094;53.864;27.676;2023-08-06T01:43:48;3.53;;;3.53;;
64678;SDS011;51094;53.864;27.676;2023-08-06T01:46:15;3.47;;;3.47;;
64678;SDS011;51094;53.864;27.676;2023-08-06T01:48:42;3.58;;;3.58;;
64678;SDS011;51094;53.864;27.676;2023-08-06T01:51:09;3.60;;;3.60;;
64678;SDS011;51094;53.864;27.676;2023-08-06T01:53:37;3.72;;;3.72;;
64678;SDS011;51094;53.864;27.676;2023-08-06T01:56:04;3.50;;;3.50;;
64678;SDS011;51094;53.864;27.676;2023-08-06T01:58:31;3.60;;;3.60;;
64678;SDS011;51094;53.864;27.676;2023-08-06T02:00:58;3.80;;;3.80;;
64678;SDS011;51094;53.864;27.676;2023-08-06T02:03:25;3.70;;;3.70;;
64678;SDS011;51094;53.864;27.676;2023-08-06T02:05:52;3.70;;;3.70;;
64678;SDS011;51094;53.864;27.676;2023-08-06T02:08:21;3.88;;;3.80;;
64678;SDS011;51094;53.864;27.676;2023-08-06T02:10:48;3.63;;;3.63;;
64678;SDS011;51094;53.864;27.676;2023-08-06T02:13:15;4.10;;;4.00;;
64678;SDS011;51094;53.864;27.676;2023-08-06T02:15:42;4.15;;;4.15;;
64678;SDS011;51094;53.864;27.676;2023-08-06T02:18:10;3.90;;;3.90;;
64678;SDS011;51094;53.864;27.676;2023-08-06T02:20:37;4.63;;;4.60;;
64678;SDS011;51094;53.864;27.676;2023-08-06T02:23:04;4.70;;;4.60;;
64678;SDS011;51094;53.864;27.676;2023-08-06T02:25:31;4.20;;;4.20;;
64678;SDS011;51094;53.864;27.676;2023-08-06T02:27:58;4.35;;;4.35;;
64678;SDS011;51094;53.864;27.676;2023-08-06T02:30:25;4.35;;;4.25;;
64678;SDS011;51094;53.864;27.676;2023-08-06T02:32:52;4.10;;;4.10;;
64678;SDS011;51094;53.864;27.676;2023-08-06T02:35:19;4.05;;;4.05;;
64678;SDS011;51094;53.864;27.676;2023-08-06T02:37:46;3.65;;;3.65;;
64678;SDS011;51094;53.864;27.676;2023-08-06T02:40:13;3.95;;;3.95;;
64678;SDS011;51094;53.864;27.676;2023-08-06T02:42:40;3.85;;;3.85;;
64678;SDS011;51094;53.864;27.676;2023-08-06T02:45:07;3.80;;;3.80;;
64678;SDS011;51094;53.864;27.676;2023-08-06T02:47:34;3.70;;;3.70;;
64678;SDS011;51094;53.864;27.676;2023-08-06T02:50:01;3.92;;;3.92;;
64678;SDS011;51094;53.864;27.676;2023-08-06T02:52:29;3.88;;;3.88;;
64678;SDS011;51094;53.864;27.676;2023-08-06T02:54:56;5.85;;;5.75;;
64678;SDS011;51094;53.864;27.676;2023-08-06T02:57:28;3.92;;;3.92;;
64678;SDS011;51094;53.864;27.676;2023-08-06T02:59:55;4.05;;;4.05;;
64678;SDS011;51094;53.864;27.676;2023-08-06T03:02:23;3.70;;;3.70;;
64678;SDS011;51094;53.864;27.676;2023-08-06T03:05:09;3.72;;;3.72;;
64678;SDS011;51094;53.864;27.676;2023-08-06T03:07:41;3.97;;;3.97;;
64678;SDS011;51094;53.864;27.676;2023-08-06T03:10:19;3.90;;;3.90;;
64678;SDS011;51094;53.864;27.676;2023-08-06T03:12:49;3.65;;;3.65;;
64678;SDS011;51094;53.864;27.676;2023-08-06T03:15:17;4.13;;;4.13;;
64678;SDS011;51094;53.864;27.676;2023-08-06T03:17:45;4.13;;;4.13;;
64678;SDS011;51094;53.864;27.676;2023-08-06T03:20:15;3.85;;;3.85;;
64678;SDS011;51094;53.864;27.676;2023-08-06T03:22:42;3.90;;;3.90;;
64678;SDS011;51094;53.864;27.676;2023-08-06T03:25:09;3.75;;;3.75;;
64678;SDS011;51094;53.864;27.676;2023-08-06T03:27:37;3.60;;;3.60;;
64678;SDS011;51094;53.864;27.676;2023-08-06T03:30:03;3.95;;;3.95;;
64678;SDS011;51094;53.864;27.676;2023-08-06T03:32:32;3.80;;;3.80;;
64678;SDS011;51094;53.864;27.676;2023-08-06T03:34:59;3.92;;;3.90;;
64678;SDS011;51094;53.864;27.676;2023-08-06T03:37:28;3.65;;;3.65;;
64678;SDS011;51094;53.864;27.676;2023-08-06T03:39:55;3.80;;;3.80;;
64678;SDS011;51094;53.864;27.676;2023-08-06T03:42:22;4.00;;;4.00;;
64678;SDS011;51094;53.864;27.676;2023-08-06T03:44:49;3.70;;;3.70;;
64678;SDS011;51094;53.864;27.676;2023-08-06T03:47:16;3.90;;;3.88;;
64678;SDS011;51094;53.864;27.676;2023-08-06T03:49:44;3.65;;;3.65;;
64678;SDS011;51094;53.864;27.676;2023-08-06T03:52:12;3.58;;;3.58;;
64678;SDS011;51094;53.864;27.676;2023-08-06T03:54:39;3.92;;;3.92;;
64678;SDS011;51094;53.864;27.676;2023-08-06T03:57:07;3.97;;;3.97;;
64678;SDS011;51094;53.864;27.676;2023-08-06T03:59:34;3.72;;;3.72;;
64678;SDS011;51094;53.864;27.676;2023-08-06T04:02:01;3.60;;;3.60;;
64678;SDS011;51094;53.864;27.676;2023-08-06T04:04:28;3.70;;;3.70;;
64678;SDS011;51094;53.864;27.676;2023-08-06T04:06:55;3.85;;;3.85;;
64678;SDS011;51094;53.864;27.676;2023-08-06T04:09:21;3.45;;;3.45;;
64678;SDS011;51094;53.864;27.676;2023-08-06T04:11:48;3.80;;;3.80;;
64678;SDS011;51094;53.864;27.676;2023-08-06T04:14:16;3.80;;;3.80;;
64678;SDS011;51094;53.864;27.676;2023-08-06T04:16:42;3.75;;;3.75;;
64678;SDS011;51094;53.864;27.676;2023-08-06T04:19:09;3.72;;;3.72;;
64678;SDS011;51094;53.864;27.676;2023-08-06T04:21:36;3.65;;;3.55;;
64678;SDS011;51094;53.864;27.676;2023-08-06T04:24:03;3.80;;;3.80;;
64678;SDS011;51094;53.864;27.676;2023-08-06T04:26:30;3.42;;;3.42;;
64678;SDS011;51094;53.864;27.676;2023-08-06T04:28:57;3.65;;;3.65;;
64678;SDS011;51094;53.864;27.676;2023-08-06T04:31:24;3.58;;;3.58;;
64678;SDS011;51094;53.864;27.676;2023-08-06T04:33:51;3.50;;;3.50;;
64678;SDS011;51094;53.864;27.676;2023-08-06T04:36:18;3.67;;;3.67;;
64678;SDS011;51094;53.864;27.676;2023-08-06T04:38:45;3.58;;;3.58;;
64678;SDS011;51094;53.864;27.676;2023-08-06T04:41:14;3.63;;;3.63;;
64678;SDS011;51094;53.864;27.676;2023-08-06T04:43:41;3.50;;;3.50;;
64678;SDS011;51094;53.864;27.676;2023-08-06T04:46:08;3.45;;;3.45;;
64678;SDS011;51094;53.864;27.676;2023-08-06T04:48:35;3.47;;;3.47;;
64678;SDS011;51094;53.864;27.676;2023-08-06T04:51:02;4.00;;;4.00;;
64678;SDS011;51094;53.864;27.676;2023-08-06T04:53:29;3.50;;;3.47;;
64678;SDS011;51094;53.864;27.676;2023-08-06T04:55:56;3.38;;;3.33;;
64678;SDS011;51094;53.864;27.676;2023-08-06T04:58:23;3.50;;;3.50;;
64678;SDS011;51094;53.864;27.676;2023-08-06T05:00:49;3.20;;;3.20;;
64678;SDS011;51094;53.864;27.676;2023-08-06T05:03:16;3.50;;;3.50;;
64678;SDS011;51094;53.864;27.676;2023-08-06T05:05:43;3.60;;;3.60;;
64678;SDS011;51094;53.864;27.676;2023-08-06T05:08:13;3.20;;;3.20;;
64678;SDS011;51094;53.864;27.676;2023-08-06T05:10:43;3.42;;;3.42;;
64678;SDS011;51094;53.864;27.676;2023-08-06T05:13:11;3.70;;;3.70;;
64678;SDS011;51094;53.864;27.676;2023-08-06T05:15:38;3.30;;;3.30;;
64678;SDS011;51094;53.864;27.676;2023-08-06T05:18:09;3.40;;;3.40;;
64678;SDS011;51094;53.864;27.676;2023-08-06T05:20:36;3.50;;;3.40;;
64678;SDS011;51094;53.864;27.676;2023-08-06T05:23:04;3.20;;;3.20;;
64678;SDS011;51094;53.864;27.676;2023-08-06T05:25:31;3.40;;;3.40;;
64678;SDS011;51094;53.864;27.676;2023-08-06T05:27:58;3.40;;;3.40;;
64678;SDS011;51094;53.864;27.676;2023-08-06T05:30:24;3.30;;;3.30;;
64678;SDS011;51094;53.864;27.676;2023-08-06T05:32:51;3.40;;;3.40;;
64678;SDS011;51094;53.864;27.676;2023-08-06T05:35:18;3.42;;;3.42;;
64678;SDS011;51094;53.864;27.676;2023-08-06T05:37:45;3.38;;;3.38;;
64678;SDS011;51094;53.864;27.676;2023-08-06T05:40:12;3.30;;;3.30;;
64678;SDS011;51094;53.864;27.676;2023-08-06T05:42:39;3.13;;;3.13;;
64678;SDS011;51094;53.864;27.676;2023-08-06T05:45:07;3.67;;;3.67;;
64678;SDS011;51094;53.864;27.676;2023-08-06T05:47:34;3.58;;;3.58;;
64678;SDS011;51094;53.864;27.676;2023-08-06T05:50:01;3.63;;;3.53;;
64678;SDS011;51094;53.864;27.676;2023-08-06T05:52:28;3.50;;;3.50;;
64678;SDS011;51094;53.864;27.676;2023-08-06T05:54:55;3.40;;;3.40;;
64678;SDS011;51094;53.864;27.676;2023-08-06T05:57:22;3.50;;;3.50;;
64678;SDS011;51094;53.864;27.676;2023-08-06T05:59:49;2.92;;;2.92;;
64678;SDS011;51094;53.864;27.676;2023-08-06T06:02:15;3.20;;;3.20;;
64678;SDS011;51094;53.864;27.676;2023-08-06T06:04:45;3.47;;;3.47;;
64678;SDS011;51094;53.864;27.676;2023-08-06T06:07:11;3.22;;;3.22;;
64678;SDS011;51094;53.864;27.676;2023-08-06T06:09:38;3.63;;;3.63;;
64678;SDS011;51094;53.864;27.676;2023-08-06T06:12:06;3.70;;;3.60;;
64678;SDS011;51094;53.864;27.676;2023-08-06T06:14:33;3.47;;;3.47;;
64678;SDS011;51094;53.864;27.676;2023-08-06T06:17:00;3.60;;;3.60;;
64678;SDS011;51094;53.864;27.676;2023-08-06T06:19:27;3.13;;;3.13;;
64678;SDS011;51094;53.864;27.676;2023-08-06T06:21:54;3.40;;;3.40;;
64678;SDS011;51094;53.864;27.676;2023-08-06T06:24:25;3.42;;;3.42;;
64678;SDS011;51094;53.864;27.676;2023-08-06T06:26:52;3.53;;;3.53;;
64678;SDS011;51094;53.864;27.676;2023-08-06T06:29:19;3.35;;;3.35;;
64678;SDS011;51094;53.864;27.676;2023-08-06T06:31:46;3.40;;;3.40;;
64678;SDS011;51094;53.864;27.676;2023-08-06T06:34:12;3.30;;;3.30;;
64678;SDS011;51094;53.864;27.676;2023-08-06T06:36:39;3.42;;;3.42;;
64678;SDS011;51094;53.864;27.676;2023-08-06T06:39:06;3.40;;;3.30;;
64678;SDS011;51094;53.864;27.676;2023-08-06T06:41:34;3.10;;;3.10;;
64678;SDS011;51094;53.864;27.676;2023-08-06T06:44:10;3.30;;;3.30;;
64678;SDS011;51094;53.864;27.676;2023-08-06T06:46:37;3.13;;;3.13;;
64678;SDS011;51094;53.864;27.676;2023-08-06T06:49:03;3.30;;;3.30;;
64678;SDS011;51094;53.864;27.676;2023-08-06T06:51:30;3.30;;;3.30;;
64678;SDS011;51094;53.864;27.676;2023-08-06T06:53:58;3.75;;;3.65;;
64678;SDS011;51094;53.864;27.676;2023-08-06T06:56:25;3.50;;;3.40;;
64678;SDS011;51094;53.864;27.676;2023-08-06T06:58:52;3.40;;;3.30;;
64678;SDS011;51094;53.864;27.676;2023-08-06T07:01:19;3.30;;;3.30;;
64678;SDS011;51094;53.864;27.676;2023-08-06T07:03:45;3.28;;;3.28;;
64678;SDS011;51094;53.864;27.676;2023-08-06T07:06:12;3.10;;;3.10;;
64678;SDS011;51094;53.864;27.676;2023-08-06T07:08:39;3.35;;;3.35;;
64678;SDS011;51094;53.864;27.676;2023-08-06T07:11:06;3.47;;;3.47;;
64678;SDS011;51094;53.864;27.676;2023-08-06T07:13:33;3.72;;;3.63;;
64678;SDS011;51094;53.864;27.676;2023-08-06T07:16:01;3.45;;;3.45;;
64678;SDS011;51094;53.864;27.676;2023-08-06T07:18:28;3.38;;;3.38;;
64678;SDS011;51094;53.864;27.676;2023-08-06T07:20:55;3.10;;;3.10;;
64678;SDS011;51094;53.864;27.676;2023-08-06T07:23:23;3.38;;;3.38;;
64678;SDS011;51094;53.864;27.676;2023-08-06T07:25:50;3.40;;;3.40;;
64678;SDS011;51094;53.864;27.676;2023-08-06T07:28:17;3.38;;;3.38;;
64678;SDS011;51094;53.864;27.676;2023-08-06T07:30:45;3.28;;;3.28;;
64678;SDS011;51094;53.864;27.676;2023-08-06T07:33:12;3.30;;;3.30;;
64678;SDS011;51094;53.864;27.676;2023-08-06T07:35:39;3.28;;;3.28;;
64678;SDS011;51094;53.864;27.676;2023-08-06T07:38:06;3.38;;;3.38;;
64678;SDS011;51094;53.864;27.676;2023-08-06T07:40:35;3.25;;;3.25;;
64678;SDS011;51094;53.864;27.676;2023-08-06T07:43:03;3.33;;;3.33;;
64678;SDS011;51094;53.864;27.676;2023-08-06T07:45:34;4.50;;;4.47;;
64678;SDS011;51094;53.864;27.676;2023-08-06T07:48:02;3.30;;;3.30;;
64678;SDS011;51094;53.864;27.676;2023-08-06T07:50:30;3.35;;;3.35;;
64678;SDS011;51094;53.864;27.676;2023-08-06T07:52:56;3.10;;;3.10;;
64678;SDS011;51094;53.864;27.676;2023-08-06T07:55:23;3.08;;;3.08;;
64678;SDS011;51094;53.864;27.676;2023-08-06T07:57:50;3.05;;;3.05;;
64678;SDS011;51094;53.864;27.676;2023-08-06T08:00:17;3.08;;;3.05;;
64678;SDS011;51094;53.864;27.676;2023-08-06T08:02:44;3.17;;;3.17;;
64678;SDS011;51094;53.864;27.676;2023-08-06T08:05:13;3.25;;;3.25;;
64678;SDS011;51094;53.864;27.676;2023-08-06T08:07:40;3.17;;;3.17;;
64678;SDS011;51094;53.864;27.676;2023-08-06T08:10:06;3.10;;;3.10;;
64678;SDS011;51094;53.864;27.676;2023-08-06T08:12:34;2.90;;;2.90;;
64678;SDS011;51094;53.864;27.676;2023-08-06T08:15:01;3.30;;;3.30;;
64678;SDS011;51094;53.864;27.676;2023-08-06T08:17:27;3.38;;;3.28;;
64678;SDS011;51094;53.864;27.676;2023-08-06T08:19:54;3.30;;;3.30;;
64678;SDS011;51094;53.864;27.676;2023-08-06T08:22:21;3.40;;;3.40;;
64678;SDS011;51094;53.864;27.676;2023-08-06T08:24:48;2.92;;;2.92;;
64678;SDS011;51094;53.864;27.676;2023-08-06T08:27:15;3.05;;;2.97;;
64678;SDS011;51094;53.864;27.676;2023-08-06T08:29:42;3.17;;;3.17;;
64678;SDS011;51094;53.864;27.676;2023-08-06T08:32:09;3.40;;;3.40;;
64678;SDS011;51094;53.864;27.676;2023-08-06T08:34:36;2.95;;;2.95;;
64678;SDS011;51094;53.864;27.676;2023-08-06T08:37:03;3.33;;;3.33;;
64678;SDS011;51094;53.864;27.676;2023-08-06T08:39:32;3.22;;;3.22;;
64678;SDS011;51094;53.864;27.676;2023-08-06T08:41:59;3.10;;;3.10;;
64678;SDS011;51094;53.864;27.676;2023-08-06T08:44:32;3.20;;;3.20;;
64678;SDS011;51094;53.864;27.676;2023-08-06T08:47:00;3.03;;;3.03;;
64678;SDS011;51094;53.864;27.676;2023-08-06T08:49:27;2.95;;;2.95;;
64678;SDS011;51094;53.864;27.676;2023-08-06T08:51:55;2.80;;;2.80;;
64678;SDS011;51094;53.864;27.676;2023-08-06T08:54:24;2.78;;;2.78;;
64678;SDS011;51094;53.864;27.676;2023-08-06T08:56:51;2.90;;;2.90;;
64678;SDS011;51094;53.864;27.676;2023-08-06T08:59:19;3.00;;;3.00;;
64678;SDS011;51094;53.864;27.676;2023-08-06T09:01:46;3.05;;;3.05;;
64678;SDS011;51094;53.864;27.676;2023-08-06T09:04:18;2.90;;;2.90;;
64678;SDS011;51094;53.864;27.676;2023-08-06T09:06:48;2.72;;;2.72;;
64678;SDS011;51094;53.864;27.676;2023-08-06T09:09:20;2.80;;;2.80;;
64678;SDS011;51094;53.864;27.676;2023-08-06T09:11:52;2.90;;;2.90;;
64678;SDS011;51094;53.864;27.676;2023-08-06T09:14:22;2.90;;;2.90;;
64678;SDS011;51094;53.864;27.676;2023-08-06T09:16:52;2.70;;;2.70;;
64678;SDS011;51094;53.864;27.676;2023-08-06T09:19:19;2.65;;;2.65;;
64678;SDS011;51094;53.864;27.676;2023-08-06T09:21:46;2.70;;;2.70;;
64678;SDS011;51094;53.864;27.676;2023-08-06T09:24:15;3.00;;;2.90;;
64678;SDS011;51094;53.864;27.676;2023-08-06T09:26:43;2.88;;;2.88;;
64678;SDS011;51094;53.864;27.676;2023-08-06T09:29:11;3.05;;;3.00;;
64678;SDS011;51094;53.864;27.676;2023-08-06T09:31:40;2.83;;;2.83;;
64678;SDS011;51094;53.864;27.676;2023-08-06T09:34:26;2.95;;;2.85;;
64678;SDS011;51094;53.864;27.676;2023-08-06T09:36:53;3.00;;;3.00;;
64678;SDS011;51094;53.864;27.676;2023-08-06T09:39:22;2.50;;;2.50;;
64678;SDS011;51094;53.864;27.676;2023-08-06T09:41:59;2.45;;;2.45;;
64678;SDS011;51094;53.864;27.676;2023-08-06T09:44:30;2.60;;;2.60;;
64678;SDS011;51094;53.864;27.676;2023-08-06T09:46:58;2.78;;;2.78;;
64678;SDS011;51094;53.864;27.676;2023-08-06T09:49:27;2.67;;;2.67;;
64678;SDS011;51094;53.864;27.676;2023-08-06T09:51:54;2.80;;;2.80;;
64678;SDS011;51094;53.864;27.676;2023-08-06T09:54:26;2.80;;;2.80;;
64678;SDS011;51094;53.864;27.676;2023-08-06T09:56:55;2.58;;;2.58;;
64678;SDS011;51094;53.864;27.676;2023-08-06T09:59:23;2.90;;;2.90;;
64678;SDS011;51094;53.864;27.676;2023-08-06T10:01:51;2.63;;;2.63;;
64678;SDS011;51094;53.864;27.676;2023-08-06T10:04:19;2.58;;;2.58;;
64678;SDS011;51094;53.864;27.676;2023-08-06T10:06:50;2.55;;;2.55;;
64678;SDS011;51094;53.864;27.676;2023-08-06T10:11:48;2.60;;;2.60;;
64678;SDS011;51094;53.864;27.676;2023-08-06T10:14:19;2.80;;;2.80;;
64678;SDS011;51094;53.864;27.676;2023-08-06T10:16:52;2.50;;;2.50;;
64678;SDS011;51094;53.864;27.676;2023-08-06T10:19:20;2.58;;;2.58;;
64678;SDS011;51094;53.864;27.676;2023-08-06T10:24:54;2.45;;;2.45;;
64678;SDS011;51094;53.864;27.676;2023-08-06T10:27:32;2.47;;;2.47;;
64678;SDS011;51094;53.864;27.676;2023-08-06T10:32:54;2.53;;;2.53;;
64678;SDS011;51094;53.864;27.676;2023-08-06T10:38:12;2.20;;;2.20;;
64678;SDS011;51094;53.864;27.676;2023-08-06T10:40:42;2.15;;;2.15;;
64678;SDS011;51094;53.864;27.676;2023-08-06T10:45:58;2.20;;;2.20;;
64678;SDS011;51094;53.864;27.676;2023-08-06T10:50:59;2.10;;;2.10;;
64678;SDS011;51094;53.864;27.676;2023-08-06T10:55:58;2.03;;;2.03;;
64678;SDS011;51094;53.864;27.676;2023-08-06T10:58:25;2.10;;;2.10;;
64678;SDS011;51094;53.864;27.676;2023-08-06T11:00:51;2.00;;;2.00;;
64678;SDS011;51094;53.864;27.676;2023-08-06T11:03:19;1.90;;;1.90;;
64678;SDS011;51094;53.864;27.676;2023-08-06T11:05:49;1.90;;;1.90;;
64678;SDS011;51094;53.864;27.676;2023-08-06T11:08:26;1.98;;;1.98;;
64678;SDS011;51094;53.864;27.676;2023-08-06T11:10:54;1.95;;;1.95;;
64678;SDS011;51094;53.864;27.676;2023-08-06T11:13:29;2.40;;;2.30;;
64678;SDS011;51094;53.864;27.676;2023-08-06T11:15:57;1.95;;;1.95;;
64678;SDS011;51094;53.864;27.676;2023-08-06T11:18:25;1.90;;;1.90;;
64678;SDS011;51094;53.864;27.676;2023-08-06T11:20:52;1.90;;;1.90;;
64678;SDS011;51094;53.864;27.676;2023-08-06T11:23:19;1.90;;;1.90;;
64678;SDS011;51094;53.864;27.676;2023-08-06T11:25:45;2.10;;;2.10;;
64678;SDS011;51094;53.864;27.676;2023-08-06T11:28:13;1.90;;;1.90;;
64678;SDS011;51094;53.864;27.676;2023-08-06T11:30:40;1.98;;;1.98;;
64678;SDS011;51094;53.864;27.676;2023-08-06T11:33:07;1.90;;;1.90;;
64678;SDS011;51094;53.864;27.676;2023-08-06T11:35:36;1.90;;;1.90;;
64678;SDS011;51094;53.864;27.676;2023-08-06T11:38:04;1.88;;;1.88;;
64678;SDS011;51094;53.864;27.676;2023-08-06T11:40:31;1.85;;;1.85;;
64678;SDS011;51094;53.864;27.676;2023-08-06T11:42:59;1.80;;;1.80;;
64678;SDS011;51094;53.864;27.676;2023-08-06T11:45:26;1.95;;;1.95;;
64678;SDS011;51094;53.864;27.676;2023-08-06T11:47:53;1.80;;;1.80;;
64678;SDS011;51094;53.864;27.676;2023-08-06T11:50:23;1.77;;;1.77;;
64678;SDS011;51094;53.864;27.676;2023-08-06T11:52:57;1.90;;;1.90;;
64678;SDS011;51094;53.864;27.676;2023-08-06T11:55:26;1.90;;;1.90;;
64678;SDS011;51094;53.864;27.676;2023-08-06T11:57:55;1.83;;;1.83;;
64678;SDS011;51094;53.864;27.676;2023-08-06T12:00:24;1.92;;;1.92;;
64678;SDS011;51094;53.864;27.676;2023-08-06T12:02:52;1.90;;;1.90;;
64678;SDS011;51094;53.864;27.676;2023-08-06T12:05:20;2.05;;;2.05;;
64678;SDS011;51094;53.864;27.676;2023-08-06T12:07:54;1.90;;;1.90;;
64678;SDS011;51094;53.864;27.676;2023-08-06T12:10:27;1.80;;;1.80;;
64678;SDS011;51094;53.864;27.676;2023-08-06T12:12:55;1.90;;;1.90;;
64678;SDS011;51094;53.864;27.676;2023-08-06T12:15:23;1.92;;;1.92;;
64678;SDS011;51094;53.864;27.676;2023-08-06T12:17:50;2.00;;;2.00;;
64678;SDS011;51094;53.864;27.676;2023-08-06T12:20:17;2.00;;;2.00;;
64678;SDS011;51094;53.864;27.676;2023-08-06T12:22:44;2.30;;;2.30;;
64678;SDS011;51094;53.864;27.676;2023-08-06T12:25:12;2.00;;;2.00;;
64678;SDS011;51094;53.864;27.676;2023-08-06T12:27:42;1.80;;;1.80;;
64678;SDS011;51094;53.864;27.676;2023-08-06T12:30:12;1.90;;;1.90;;
64678;SDS011;51094;53.864;27.676;2023-08-06T12:32:40;2.20;;;2.20;;
64678;SDS011;51094;53.864;27.676;2023-08-06T12:35:07;2.10;;;2.10;;
64678;SDS011;51094;53.864;27.676;2023-08-06T12:37:35;1.98;;;1.98;;
64678;SDS011;51094;53.864;27.676;2023-08-06T12:40:02;2.08;;;2.08;;
64678;SDS011;51094;53.864;27.676;2023-08-06T12:42:50;2.10;;;2.10;;
64678;SDS011;51094;53.864;27.676;2023-08-06T12:45:17;2.20;;;2.20;;
64678;SDS011;51094;53.864;27.676;2023-08-06T12:47:48;1.80;;;1.80;;
64678;SDS011;51094;53.864;27.676;2023-08-06T12:50:16;1.83;;;1.83;;
64678;SDS011;51094;53.864;27.676;2023-08-06T12:52:44;2.00;;;2.00;;
64678;SDS011;51094;53.864;27.676;2023-08-06T12:55:11;1.88;;;1.88;;
64678;SDS011;51094;53.864;27.676;2023-08-06T12:57:38;2.00;;;2.00;;
64678;SDS011;51094;53.864;27.676;2023-08-06T13:00:23;2.17;;;2.17;;
64678;SDS011;51094;53.864;27.676;2023-08-06T13:05:17;2.10;;;2.10;;
64678;SDS011;51094;53.864;27.676;2023-08-06T13:07:44;2.10;;;2.10;;
64678;SDS011;51094;53.864;27.676;2023-08-06T13:10:11;2.13;;;2.13;;
64678;SDS011;51094;53.864;27.676;2023-08-06T13:12:38;2.08;;;2.08;;
64678;SDS011;51094;53.864;27.676;2023-08-06T13:15:05;2.20;;;2.20;;
64678;SDS011;51094;53.864;27.676;2023-08-06T13:17:32;2.00;;;2.00;;
64678;SDS011;51094;53.864;27.676;2023-08-06T13:19:59;2.10;;;2.10;;
64678;SDS011;51094;53.864;27.676;2023-08-06T13:22:26;2.30;;;2.30;;
64678;SDS011;51094;53.864;27.676;2023-08-06T13:24:56;2.10;;;2.10;;
64678;SDS011;51094;53.864;27.676;2023-08-06T13:27:23;2.20;;;2.20;;
64678;SDS011;51094;53.864;27.676;2023-08-06T13:29:50;2.30;;;2.30;;
64678;SDS011;51094;53.864;27.676;2023-08-06T13:32:17;2.60;;;2.60;;
64678;SDS011;51094;53.864;27.676;2023-08-06T13:34:44;2.20;;;2.20;;
64678;SDS011;51094;53.864;27.676;2023-08-06T13:37:11;2.50;;;2.40;;
64678;SDS011;51094;53.864;27.676;2023-08-06T13:39:38;2.70;;;2.63;;
64678;SDS011;51094;53.864;27.676;2023-08-06T13:42:04;2.70;;;2.60;;
64678;SDS011;51094;53.864;27.676;2023-08-06T13:44:31;2.63;;;2.53;;
64678;SDS011;51094;53.864;27.676;2023-08-06T13:47:14;2.60;;;2.53;;
64678;SDS011;51094;53.864;27.676;2023-08-06T13:49:41;2.50;;;2.50;;
64678;SDS011;51094;53.864;27.676;2023-08-06T13:52:08;2.50;;;2.50;;
64678;SDS011;51094;53.864;27.676;2023-08-06T13:54:47;2.60;;;2.60;;
64678;SDS011;51094;53.864;27.676;2023-08-06T13:57:14;2.85;;;2.75;;
64678;SDS011;51094;53.864;27.676;2023-08-06T13:59:41;2.75;;;2.70;;
64678;SDS011;51094;53.864;27.676;2023-08-06T14:02:10;2.60;;;2.60;;
64678;SDS011;51094;53.864;27.676;2023-08-06T14:04:37;2.88;;;2.78;;
64678;SDS011;51094;53.864;27.676;2023-08-06T14:07:04;2.55;;;2.45;;
64678;SDS011;51094;53.864;27.676;2023-08-06T14:09:32;2.60;;;2.55;;
64678;SDS011;51094;53.864;27.676;2023-08-06T14:12:00;2.50;;;2.50;;
64678;SDS011;51094;53.864;27.676;2023-08-06T14:14:27;2.63;;;2.63;;
64678;SDS011;51094;53.864;27.676;2023-08-06T14:16:54;2.50;;;2.50;;
64678;SDS011;51094;53.864;27.676;2023-08-06T14:19:23;2.42;;;2.40;;
64678;SDS011;51094;53.864;27.676;2023-08-06T14:21:50;2.65;;;2.60;;
64678;SDS011;51094;53.864;27.676;2023-08-06T14:24:18;2.50;;;2.50;;
64678;SDS011;51094;53.864;27.676;2023-08-06T14:26:45;3.00;;;2.90;;
64678;SDS011;51094;53.864;27.676;2023-08-06T14:29:11;2.60;;;2.60;;
64678;SDS011;51094;53.864;27.676;2023-08-06T14:31:40;2.70;;;2.60;;
64678;SDS011;51094;53.864;27.676;2023-08-06T14:34:07;2.40;;;2.40;;
64678;SDS011;51094;53.864;27.676;2023-08-06T14:36:35;2.45;;;2.45;;
64678;SDS011;51094;53.864;27.676;2023-08-06T14:39:02;2.80;;;2.80;;
64678;SDS011;51094;53.864;27.676;2023-08-06T14:41:29;2.45;;;2.45;;
64678;SDS011;51094;53.864;27.676;2023-08-06T14:43:56;2.72;;;2.63;;
64678;SDS011;51094;53.864;27.676;2023-08-06T14:46:23;2.40;;;2.40;;
64678;SDS011;51094;53.864;27.676;2023-08-06T14:48:50;2.50;;;2.50;;
64678;SDS011;51094;53.864;27.676;2023-08-06T14:51:17;2.40;;;2.40;;
64678;SDS011;51094;53.864;27.676;2023-08-06T14:53:47;2.75;;;2.65;;
64678;SDS011;51094;53.864;27.676;2023-08-06T14:56:14;2.70;;;2.70;;
64678;SDS011;51094;53.864;27.676;2023-08-06T14:58:41;2.72;;;2.70;;
64678;SDS011;51094;53.864;27.676;2023-08-06T15:01:08;2.50;;;2.50;;
64678;SDS011;51094;53.864;27.676;2023-08-06T15:03:35;2.45;;;2.40;;
64678;SDS011;51094;53.864;27.676;2023-08-06T15:06:02;2.42;;;2.40;;
64678;SDS011;51094;53.864;27.676;2023-08-06T15:08:29;2.75;;;2.65;;
64678;SDS011;51094;53.864;27.676;2023-08-06T15:10:56;2.30;;;2.30;;